createdAt,value
2018-05-12T00:01:13.264Z,100278.27
2018-05-12T00:03:39.965Z,100277.27
2018-05-12T00:06:06.632Z,100269.47
2018-05-12T00:08:33.307Z,100275.12
2018-05-12T00:10:59.995Z,100278.55
2018-05-12T00:13:26.635Z,100284.16
2018-05-12T00:15:53.340Z,100286.27
2018-05-12T00:18:19.891Z,100281.45
2018-05-12T00:20:49.835Z,100286.52
2018-05-12T00:23:16.473Z,100282.05
2018-05-12T00:25:43.098Z,100283.36
2018-05-12T00:28:13.502Z,100278.77
2018-05-12T00:30:44.730Z,100278.71
2018-05-12T00:33:11.496Z,100281.58
2018-05-12T00:35:38.098Z,100289.58
2018-05-12T00:38:04.741Z,100294.23
2018-05-12T00:40:31.568Z,100295.22
2018-05-12T00:42:58.231Z,100295.73
2018-05-12T00:45:24.877Z,100288.94
2018-05-12T00:47:51.602Z,100289.03
2018-05-12T00:50:21.408Z,100288.36
2018-05-12T00:52:48.101Z,100284.22
2018-05-12T00:55:14.741Z,100284.99
2018-05-12T00:57:41.306Z,100288.58
2018-05-12T01:00:11.735Z,100288.95
2018-05-12T01:02:38.337Z,100287.69
2018-05-12T01:05:04.885Z,100291.91
2018-05-12T01:07:31.485Z,100291.51
2018-05-12T01:10:22.812Z,100293.05
2018-05-12T01:12:49.502Z,100290.09
2018-05-12T01:15:16.477Z,100293.22
2018-05-12T01:17:44.197Z,100294.75
2018-05-12T01:20:13.823Z,100289.50
2018-05-12T01:22:40.516Z,100288.34
2018-05-12T01:25:07.206Z,100287.92
2018-05-12T01:27:34.007Z,100282.60
2018-05-12T01:30:06.564Z,100285.66
2018-05-12T01:32:33.214Z,100279.27
2018-05-12T01:34:59.992Z,100274.84
2018-05-12T01:37:26.755Z,100276.10
2018-05-12T01:39:54.898Z,100274.71
2018-05-12T01:42:21.585Z,100278.90
2018-05-12T01:44:48.543Z,100281.50
2018-05-12T01:47:15.279Z,100285.67
2018-05-12T01:49:41.995Z,100283.86
2018-05-12T01:52:08.575Z,100279.83
2018-05-12T01:54:35.274Z,100282.19
2018-05-12T01:57:02.043Z,100278.78
2018-05-12T01:59:28.568Z,100276.92
2018-05-12T02:01:56.239Z,100274.13
2018-05-12T02:04:23.288Z,100273.69
2018-05-12T02:06:49.971Z,100271.34
2018-05-12T02:09:16.709Z,100272.05
2018-05-12T02:11:44.662Z,100274.63
2018-05-12T02:14:11.455Z,100280.80
2018-05-12T02:16:38.144Z,100281.74
2018-05-12T02:19:04.796Z,100284.13
2018-05-12T02:21:35.182Z,100279.53
2018-05-12T02:24:02.460Z,100280.91
2018-05-12T02:26:33.789Z,100284.18
2018-05-12T02:29:01.397Z,100283.91
2018-05-12T02:31:38.347Z,100281.77
2018-05-12T02:34:05.035Z,100281.01
2018-05-12T02:36:31.753Z,100278.06
2018-05-12T02:38:59.505Z,100281.90
2018-05-12T02:41:29.881Z,100290.71
2018-05-12T02:43:56.567Z,100296.68
2018-05-12T02:46:23.435Z,100296.45
2018-05-12T02:48:50.421Z,100296.13
2018-05-12T02:51:20.500Z,100297.70
2018-05-12T02:53:47.392Z,100305.45
2018-05-12T02:56:13.886Z,100298.37
2018-05-12T02:58:41.121Z,100304.97
2018-05-12T03:01:11.786Z,100307.67
2018-05-12T03:03:38.570Z,100309.08
2018-05-12T03:06:05.417Z,100306.25
2018-05-12T03:08:32.033Z,100310.62
2018-05-12T03:10:58.908Z,100309.80
2018-05-12T03:13:26.279Z,100309.87
2018-05-12T03:15:53.009Z,100316.66
2018-05-12T03:18:19.757Z,100314.56
2018-05-12T03:20:54.257Z,100316.58
2018-05-12T03:23:20.761Z,100314.30
2018-05-12T03:25:47.474Z,100323.66
2018-05-12T03:28:14.136Z,100323.81
2018-05-12T03:33:34.137Z,100324.80
2018-05-12T03:36:00.700Z,100323.27
2018-05-12T03:38:27.258Z,100324.35
2018-05-12T03:40:53.985Z,100322.14
2018-05-12T03:43:20.705Z,100323.71
2018-05-12T03:45:47.260Z,100320.11
2018-05-12T03:48:14.468Z,100324.97
2018-05-12T03:50:42.648Z,100320.83
2018-05-12T03:53:09.195Z,100322.14
2018-05-12T03:55:35.899Z,100326.47
2018-05-12T03:58:02.600Z,100323.46
2018-05-12T04:00:33.234Z,100324.17
2018-05-12T04:02:59.802Z,100316.95
2018-05-12T04:05:38.413Z,100322.57
2018-05-12T04:08:16.972Z,100319.38
2018-05-12T04:10:51.532Z,100314.98
2018-05-12T04:13:18.176Z,100313.39
2018-05-12T04:15:44.857Z,100312.23
2018-05-12T04:18:11.513Z,100307.72
2018-05-12T04:20:39.222Z,100308.56
2018-05-12T04:23:05.928Z,100315.81
2018-05-12T04:25:32.605Z,100312.72
2018-05-12T04:27:59.641Z,100316.19
2018-05-12T04:30:30.180Z,100318.03
2018-05-12T04:32:56.740Z,100312.09
2018-05-12T04:35:23.562Z,100315.02
2018-05-12T04:37:50.260Z,100310.35
2018-05-12T04:40:18.137Z,100312.98
2018-05-12T04:42:45.801Z,100311.73
2018-05-12T04:45:12.368Z,100314.52
2018-05-12T04:47:39.083Z,100310.67
2018-05-12T04:50:09.449Z,100311.17
2018-05-12T04:52:36.266Z,100305.37
2018-05-12T04:55:02.859Z,100311.12
2018-05-12T04:57:29.605Z,100308.97
2018-05-12T04:59:59.853Z,100317.62
2018-05-12T05:02:27.125Z,100323.79
2018-05-12T05:04:54.083Z,100319.56
2018-05-12T05:07:20.681Z,100322.61
2018-05-12T05:09:47.642Z,100327.23
2018-05-12T05:12:14.285Z,100317.28
2018-05-12T05:14:41.002Z,100319.92
2018-05-12T05:17:07.784Z,100321.80
2018-05-12T05:19:34.641Z,100319.01
2018-05-12T05:22:01.346Z,100325.56
2018-05-12T05:24:28.836Z,100318.48
2018-05-12T05:26:55.426Z,100323.08
2018-05-12T05:29:25.603Z,100318.62
2018-05-12T05:31:52.612Z,100316.69
2018-05-12T05:34:19.416Z,100324.61
2018-05-12T05:36:46.021Z,100320.87
2018-05-12T05:39:12.652Z,100324.91
2018-05-12T05:41:39.327Z,100323.95
2018-05-12T05:44:05.894Z,100322.72
2018-05-12T05:46:32.659Z,100320.30
2018-05-12T05:48:59.548Z,100323.26
2018-05-12T05:51:27.416Z,100321.47
2018-05-12T05:53:54.050Z,100316.77
2018-05-12T05:56:21.166Z,100315.91
2018-05-12T05:58:47.727Z,100309.22
2018-05-12T06:01:17.545Z,100311.49
2018-05-12T06:03:44.569Z,100313.55
2018-05-12T06:06:11.229Z,100312.80
2018-05-12T06:08:37.776Z,100315.55
2018-05-12T06:11:09.671Z,100313.73
2018-05-12T06:13:36.265Z,100307.80
2018-05-12T06:16:02.856Z,100314.27
2018-05-12T06:18:29.621Z,100312.77
2018-05-12T06:21:00.576Z,100313.16
2018-05-12T06:23:27.280Z,100317.34
2018-05-12T06:25:54.131Z,100322.28
2018-05-12T06:28:20.850Z,100308.42
2018-05-12T06:30:47.642Z,100309.19
2018-05-12T06:33:14.379Z,100304.42
2018-05-12T06:35:41.086Z,100308.09
2018-05-12T06:38:07.814Z,100306.08
2018-05-12T06:40:42.781Z,100311.85
2018-05-12T06:43:09.553Z,100303.27
2018-05-12T06:45:37.232Z,100311.52
2018-05-12T06:48:03.875Z,100314.73
2018-05-12T06:50:32.139Z,100309.14
2018-05-12T06:52:58.980Z,100312.72
2018-05-12T06:55:26.061Z,100311.52
2018-05-12T06:57:52.992Z,100317.89
2018-05-12T07:00:22.768Z,100319.80
2018-05-12T07:02:49.747Z,100307.58
2018-05-12T07:05:16.303Z,100320.06
2018-05-12T07:07:42.952Z,100312.11
2018-05-12T07:10:10.183Z,100315.00
2018-05-12T07:12:36.757Z,100307.81
2018-05-12T07:15:03.345Z,100310.11
2018-05-12T07:17:29.952Z,100321.80
2018-05-12T07:19:56.630Z,100320.95
2018-05-12T07:22:23.320Z,100315.67
2018-05-12T07:24:49.961Z,100321.95
2018-05-12T07:27:16.584Z,100318.52
2018-05-12T07:29:48.166Z,100316.77
2018-05-12T07:32:14.867Z,100310.12
2018-05-12T07:34:41.615Z,100309.50
2018-05-12T07:37:08.453Z,100314.36
2018-05-12T07:39:38.890Z,100311.24
2018-05-12T07:42:06.066Z,100312.40
2018-05-12T07:44:33.731Z,100311.95
2018-05-12T07:47:00.448Z,100312.63
2018-05-12T07:49:30.891Z,100313.03
2018-05-12T07:51:57.563Z,100312.59
2018-05-12T07:54:24.261Z,100314.92
2018-05-12T07:56:51.190Z,100305.90
2018-05-12T07:59:21.477Z,100306.92
2018-05-12T08:01:48.183Z,100304.98
2018-05-12T08:04:15.377Z,100300.59
2018-05-12T08:06:41.997Z,100307.72
2018-05-12T08:09:14.181Z,100313.79
2018-05-12T08:11:41.340Z,100308.20
2018-05-12T08:14:08.152Z,100311.81
2018-05-12T08:16:34.823Z,100303.94
2018-05-12T08:19:02.954Z,100306.64
2018-05-12T08:21:29.769Z,100308.84
2018-05-12T08:23:56.766Z,100307.63
2018-05-12T08:26:23.378Z,100311.31
2018-05-12T08:28:50.125Z,100305.98
2018-05-12T08:31:16.785Z,100304.77
2018-05-12T08:33:43.560Z,100304.55
2018-05-12T08:36:10.247Z,100302.24
2018-05-12T08:38:36.946Z,100307.63
2018-05-12T08:41:03.566Z,100298.89
2018-05-12T08:43:30.332Z,100299.36
2018-05-12T08:45:56.911Z,100280.75
2018-05-12T08:48:24.035Z,100285.60
2018-05-12T08:50:54.180Z,100280.92
2018-05-12T08:53:20.817Z,100292.21
2018-05-12T08:55:47.537Z,100300.28
2018-05-12T08:58:14.324Z,100299.11
2018-05-12T09:00:44.298Z,100308.31
2018-05-12T09:03:11.261Z,100308.24
2018-05-12T09:05:38.465Z,100296.20
2018-05-12T09:08:05.454Z,100302.64
2018-05-12T09:10:35.858Z,100281.17
2018-05-12T09:13:02.369Z,100288.77
2018-05-12T09:15:29.665Z,100279.75
2018-05-12T09:17:56.238Z,100275.99
2018-05-12T09:20:23.503Z,100283.56
2018-05-12T09:22:50.254Z,100273.16
2018-05-12T09:25:17.174Z,100285.34
2018-05-12T09:27:44.027Z,100282.81
2018-05-12T09:30:12.617Z,100277.44
2018-05-12T09:32:39.521Z,100274.89
2018-05-12T09:35:06.242Z,100273.03
2018-05-12T09:37:33.073Z,100268.70
2018-05-12T09:40:03.349Z,100272.47
2018-05-12T09:42:30.086Z,100279.91
2018-05-12T09:44:58.040Z,100273.57
2018-05-12T09:47:24.779Z,100267.45
2018-05-12T09:49:52.774Z,100270.03
2018-05-12T09:52:19.431Z,100264.86
2018-05-12T09:54:46.069Z,100268.73
2018-05-12T09:57:12.811Z,100273.22
2018-05-12T09:59:43.219Z,100263.80
2018-05-12T10:02:10.021Z,100248.58
2018-05-12T10:04:36.761Z,100247.25
2018-05-12T10:07:03.496Z,100244.33
2018-05-12T10:09:33.993Z,100253.17
2018-05-12T10:12:00.821Z,100251.88
2018-05-12T10:14:27.786Z,100254.39
2018-05-12T10:16:54.392Z,100248.25
2018-05-12T10:19:27.279Z,100243.41
2018-05-12T10:21:53.783Z,100244.72
2018-05-12T10:24:20.345Z,100246.41
2018-05-12T10:26:47.104Z,100246.78
2018-05-12T10:29:17.785Z,100245.09
2018-05-12T10:31:44.535Z,100234.55
2018-05-12T10:34:11.214Z,100221.50
2018-05-12T10:36:37.826Z,100224.45
2018-05-12T10:39:09.006Z,100232.78
2018-05-12T10:41:35.617Z,100227.23
2018-05-12T10:44:02.262Z,100228.26
2018-05-12T10:46:28.982Z,100235.95
2018-05-12T10:48:56.806Z,100229.83
2018-05-12T10:51:23.554Z,100223.16
2018-05-12T10:53:50.717Z,100226.08
2018-05-12T10:56:17.538Z,100228.69
2018-05-12T10:58:45.369Z,100228.17
2018-05-12T11:01:11.874Z,100230.94
2018-05-12T11:03:38.697Z,100223.37
2018-05-12T11:06:05.436Z,100214.40
2018-05-12T11:08:35.956Z,100213.71
2018-05-12T11:11:02.493Z,100212.41
2018-05-12T11:13:29.284Z,100212.98
2018-05-12T11:15:56.159Z,100209.49
2018-05-12T11:18:22.816Z,100205.00
2018-05-12T11:20:49.581Z,100211.16
2018-05-12T11:23:16.321Z,100205.21
2018-05-12T11:25:43.271Z,100193.97
2018-05-12T11:28:09.961Z,100207.11
2018-05-12T11:30:36.673Z,100202.59
2018-05-12T11:33:04.163Z,100204.85
2018-05-12T11:35:31.155Z,100207.06
2018-05-12T11:37:57.813Z,100199.73
2018-05-12T11:40:25.505Z,100204.58
2018-05-12T11:42:52.246Z,100212.57
2018-05-12T11:45:19.054Z,100204.13
2018-05-12T11:47:45.895Z,100205.40
2018-05-12T11:50:12.657Z,100206.68
2018-05-12T11:52:39.415Z,100202.28
2018-05-12T11:55:06.195Z,100202.13
2018-05-12T11:57:33.104Z,100185.03
2018-05-12T12:00:02.797Z,100195.86
2018-05-12T12:02:29.476Z,100202.55
2018-05-12T12:04:56.232Z,100186.91
2018-05-12T12:07:22.876Z,100181.38
2018-05-12T12:09:49.688Z,100186.22
2018-05-12T12:12:16.360Z,100186.57
2018-05-12T12:14:43.025Z,100186.22
2018-05-12T12:17:09.607Z,100187.39
2018-05-12T12:19:42.934Z,100174.53
2018-05-12T12:22:10.185Z,100178.80
2018-05-12T12:24:36.862Z,100173.32
2018-05-12T12:27:04.289Z,100174.47
2018-05-12T12:29:31.037Z,100172.57
2018-05-12T12:31:57.693Z,100177.52
2018-05-12T12:34:24.450Z,100168.62
2018-05-12T12:36:51.224Z,100184.15
2018-05-12T12:39:18.027Z,100177.08
2018-05-12T12:41:45.032Z,100181.67
2018-05-12T12:44:11.762Z,100185.72
2018-05-12T12:46:38.701Z,100184.16
2018-05-12T12:49:05.591Z,100189.20
2018-05-12T12:51:32.311Z,100179.53
2018-05-12T12:53:59.065Z,100174.11
2018-05-12T12:56:25.965Z,100166.47
2018-05-12T12:58:52.903Z,100164.73
2018-05-12T13:01:19.518Z,100157.41
2018-05-12T13:03:46.514Z,100155.33
2018-05-12T13:06:13.636Z,100158.13
2018-05-12T13:08:41.427Z,100165.80
2018-05-12T13:11:08.269Z,100161.28
2018-05-12T13:13:34.982Z,100162.06
2018-05-12T13:16:01.865Z,100150.21
2018-05-12T13:18:28.641Z,100160.70
2018-05-12T13:20:55.386Z,100157.71
2018-05-12T13:26:11.494Z,100160.79
2018-05-12T13:42:04.269Z,100140.41
2018-05-12T13:44:30.926Z,100149.30
2018-05-12T13:46:57.924Z,100145.95
2018-05-12T13:49:29.741Z,100149.11
2018-05-12T13:51:56.420Z,100149.47
2018-05-12T13:54:23.447Z,100144.92
2018-05-12T13:56:50.302Z,100143.81
2018-05-12T13:59:18.385Z,100134.00
2018-05-12T14:01:45.060Z,100141.69
2018-05-12T14:04:11.616Z,100150.09
2018-05-12T14:06:38.333Z,100137.52
2018-05-12T14:09:08.997Z,100153.55
2018-05-12T14:11:35.889Z,100136.11
2018-05-12T14:14:02.502Z,100134.92
2018-05-12T14:16:29.200Z,100137.41
2018-05-12T14:18:59.931Z,100132.77
2018-05-12T14:21:26.500Z,100135.41
2018-05-12T14:23:53.205Z,100126.13
2018-05-12T14:26:19.949Z,100134.37
2018-05-12T14:28:49.627Z,100133.62
2018-05-12T14:31:16.317Z,100128.55
2018-05-12T14:33:42.887Z,100124.72
2018-05-12T14:36:09.503Z,100131.83
2018-05-12T14:38:40.063Z,100125.03
2018-05-12T14:41:06.931Z,100124.73
2018-05-12T14:43:33.489Z,100129.91
2018-05-12T14:46:00.091Z,100127.42
2018-05-12T14:48:31.083Z,100134.02
2018-05-12T14:50:57.711Z,100129.97
2018-05-12T14:53:24.422Z,100127.12
2018-05-12T14:55:51.099Z,100127.77
2018-05-12T14:58:18.107Z,100117.89
2018-05-12T15:00:44.754Z,100119.75
2018-05-12T15:03:11.494Z,100124.75
2018-05-12T15:05:38.115Z,100119.58
2018-05-12T15:08:11.062Z,100113.00
2018-05-12T15:10:41.830Z,100119.66
2018-05-12T15:13:09.520Z,100120.58
2018-05-12T15:15:36.183Z,100121.64
2018-05-12T15:18:06.126Z,100119.53
2018-05-12T15:20:32.833Z,100122.59
2018-05-12T15:22:59.493Z,100119.72
2018-05-12T15:25:26.183Z,100114.34
2018-05-12T15:27:56.525Z,100112.60
2018-05-12T15:30:23.267Z,100122.72
2018-05-12T15:32:50.389Z,100113.89
2018-05-12T15:35:17.242Z,100119.88
2018-05-12T15:37:44.053Z,100114.78
2018-05-12T15:40:10.651Z,100118.86
2018-05-12T15:42:37.321Z,100113.58
2018-05-12T15:45:03.982Z,100105.58
2018-05-12T15:47:30.822Z,100106.36
2018-05-12T15:49:58.654Z,100125.05
2018-05-12T15:52:25.171Z,100118.33
2018-05-12T15:54:52.222Z,100124.05
2018-05-12T15:57:19.191Z,100110.40
2018-05-12T15:59:49.512Z,100128.76
2018-05-12T16:02:16.180Z,100121.30
2018-05-12T16:04:43.461Z,100121.25
2018-05-12T16:07:10.283Z,100120.94
2018-05-12T16:09:42.072Z,100135.37
2018-05-12T16:12:08.624Z,100140.84
2018-05-12T16:14:35.643Z,100146.61
2018-05-12T16:17:02.189Z,100147.16
2018-05-12T16:19:33.434Z,100147.77
2018-05-12T16:22:00.394Z,100143.48
2018-05-12T16:24:27.548Z,100142.76
2018-05-12T16:26:54.231Z,100137.66
2018-05-12T16:29:24.395Z,100144.88
2018-05-12T16:31:51.026Z,100138.47
2018-05-12T16:34:17.810Z,100147.11
2018-05-12T16:36:44.360Z,100158.89
2018-05-12T16:39:21.299Z,100157.27
2018-05-12T16:41:48.220Z,100167.09
2018-05-12T16:44:15.153Z,100170.72
2018-05-12T16:46:42.115Z,100170.98
2018-05-12T16:49:13.881Z,100171.41
2018-05-12T16:51:41.694Z,100171.22
2018-05-12T16:54:08.454Z,100167.76
2018-05-12T16:56:35.714Z,100178.20
2018-05-12T16:59:03.748Z,100181.34
2018-05-12T17:01:30.430Z,100191.88
2018-05-12T17:03:56.966Z,100195.90
2018-05-12T17:06:23.935Z,100196.92
2018-05-12T17:08:57.099Z,100192.45
2018-05-12T17:11:23.763Z,100191.23
2018-05-12T17:13:50.543Z,100187.19
2018-05-12T17:16:17.422Z,100189.98
2018-05-12T17:18:44.319Z,100188.56
2018-05-12T17:21:23.877Z,100190.47
2018-05-12T17:24:03.861Z,100193.83
2018-05-12T17:26:44.898Z,100192.75
2018-05-12T17:29:23.091Z,100188.93
2018-05-12T17:31:58.092Z,100186.41
2018-05-12T17:34:27.049Z,100200.63
2018-05-12T17:36:54.787Z,100204.11
2018-05-12T17:39:21.501Z,100208.23
2018-05-12T17:41:48.324Z,100205.12
2018-05-12T17:44:16.396Z,100205.45
2018-05-12T17:46:42.902Z,100201.59
2018-05-12T17:49:09.530Z,100203.27
2018-05-12T17:51:36.401Z,100206.02
2018-05-12T17:54:03.340Z,100200.27
2018-05-12T17:56:30.013Z,100205.03
2018-05-12T17:58:56.698Z,100205.22
2018-05-12T18:01:23.647Z,100209.06
2018-05-12T18:03:50.606Z,100215.25
2018-05-12T18:06:17.205Z,100215.27
2018-05-12T18:08:48.803Z,100210.56
2018-05-12T18:11:16.334Z,100218.45
2018-05-12T18:13:42.999Z,100225.77
2018-05-12T18:16:09.716Z,100225.13
2018-05-12T18:18:44.082Z,100224.69
2018-05-12T18:21:11.176Z,100220.45
2018-05-12T18:23:37.805Z,100225.07
2018-05-12T18:26:04.662Z,100220.28
2018-05-12T18:28:48.616Z,100226.66
2018-05-12T18:31:15.305Z,100226.97
2018-05-12T18:33:42.541Z,100223.99
2018-05-12T18:36:09.177Z,100229.27
2018-05-12T18:38:36.391Z,100230.53
2018-05-12T18:41:03.252Z,100238.62
2018-05-12T18:43:29.863Z,100228.29
2018-05-12T18:45:56.502Z,100230.77
2018-05-12T18:48:29.117Z,100237.89
2018-05-12T18:50:56.006Z,100238.43
2018-05-12T18:53:22.623Z,100240.48
2018-05-12T18:55:49.331Z,100244.20
2018-05-12T18:58:19.583Z,100238.56
2018-05-12T19:00:46.130Z,100224.77
2018-05-12T19:03:13.393Z,100219.55
2018-05-12T19:05:40.027Z,100229.52
2018-05-12T19:08:09.785Z,100225.25
2018-05-12T19:10:36.365Z,100222.87
2018-05-12T19:13:03.005Z,100225.10
2018-05-12T19:15:29.639Z,100227.67
2018-05-12T19:17:56.253Z,100227.67
2018-05-12T19:20:22.833Z,100221.39
2018-05-12T19:22:49.572Z,100212.35
2018-05-12T19:25:16.323Z,100211.03
2018-05-12T19:27:47.362Z,100213.34
2018-05-12T19:30:13.897Z,100206.59
2018-05-12T19:32:40.508Z,100207.61
2018-05-12T19:35:07.022Z,100210.98
2018-05-12T19:37:40.058Z,100216.20
2018-05-12T19:40:06.643Z,100209.16
2018-05-12T19:42:33.631Z,100206.59
2018-05-12T19:45:00.287Z,100203.52
2018-05-12T19:47:31.465Z,100204.11
2018-05-12T19:49:58.025Z,100203.09
2018-05-12T19:52:24.597Z,100208.29
2018-05-12T19:54:54.933Z,100208.59
2018-05-12T19:57:24.889Z,100206.48
2018-05-12T19:59:51.631Z,100206.16
2018-05-12T20:02:18.506Z,100206.81
2018-05-12T20:04:45.165Z,100203.74
2018-05-12T20:07:15.724Z,100206.37
2018-05-12T20:09:42.508Z,100204.27
2018-05-12T20:12:09.157Z,100204.92
2018-05-12T20:14:35.660Z,100216.66
2018-05-12T20:17:12.704Z,100208.39
2018-05-12T20:19:41.897Z,100204.97
2018-05-12T20:22:08.655Z,100205.50
2018-05-12T20:24:35.769Z,100198.20
2018-05-12T20:27:02.542Z,100203.45
2018-05-12T20:29:29.169Z,100198.09
2018-05-12T20:31:55.621Z,100198.61
2018-05-12T20:34:22.182Z,100190.84
2018-05-12T20:36:48.716Z,100192.22
2018-05-12T20:39:15.791Z,100190.74
2018-05-12T20:41:42.534Z,100188.72
2018-05-12T20:44:09.137Z,100192.28
2018-05-12T20:46:35.715Z,100195.39
2018-05-12T20:49:06.381Z,100192.16
2018-05-12T20:51:33.532Z,100191.20
2018-05-12T20:54:00.195Z,100187.41
2018-05-12T20:56:26.846Z,100193.97
2018-05-12T20:58:54.747Z,100202.21
2018-05-12T21:01:21.255Z,100194.95
2018-05-12T21:03:48.058Z,100195.02
2018-05-12T21:06:14.738Z,100191.59
2018-05-12T21:08:45.531Z,100198.36
2018-05-12T21:11:12.818Z,100193.69
2018-05-12T21:13:39.384Z,100186.62
2018-05-12T21:16:06.078Z,100186.76
2018-05-12T21:18:36.498Z,100185.06
2018-05-12T21:21:03.083Z,100182.16
2018-05-12T21:23:29.625Z,100178.41
2018-05-12T21:25:56.344Z,100178.23
2018-05-12T21:28:24.430Z,100182.20
2018-05-12T21:30:51.371Z,100181.25
2018-05-12T21:33:17.963Z,100188.34
2018-05-12T21:35:44.646Z,100184.59
2018-05-12T21:38:12.472Z,100188.53
2018-05-12T21:40:39.069Z,100176.88
2018-05-12T21:43:05.709Z,100173.19
2018-05-12T21:45:33.286Z,100175.19
2018-05-12T21:48:03.208Z,100172.31
2018-05-12T21:50:29.833Z,100163.74
2018-05-12T21:52:56.438Z,100167.00
2018-05-12T21:55:23.173Z,100162.68
2018-05-12T21:57:53.540Z,100160.84
2018-05-12T22:00:20.772Z,100159.56
2018-05-12T22:02:47.432Z,100160.17
2018-05-12T22:05:14.064Z,100157.16
2018-05-12T22:07:46.722Z,100156.17
2018-05-12T22:10:13.408Z,100150.95
2018-05-12T22:12:40.053Z,100147.71
2018-05-12T22:15:06.879Z,100149.50
2018-05-12T22:17:41.473Z,100140.48
2018-05-12T22:20:08.111Z,100139.95
2018-05-12T22:22:35.363Z,100142.16
2018-05-12T22:25:01.872Z,100138.07
2018-05-12T22:27:28.818Z,100135.34
2018-05-12T22:29:55.724Z,100127.63
2018-05-12T22:32:22.526Z,100128.08
2018-05-12T22:34:49.205Z,100127.08
2018-05-12T22:37:21.686Z,100116.10
2018-05-12T22:39:48.281Z,100122.11
2018-05-12T22:42:15.535Z,100117.75
2018-05-12T22:44:42.031Z,100116.13
2018-05-12T22:47:12.082Z,100117.27
2018-05-12T22:49:38.516Z,100116.80
2018-05-12T22:52:05.396Z,100120.12
2018-05-12T22:54:32.078Z,100121.39
2018-05-12T22:57:05.868Z,100122.33
2018-05-12T22:59:32.425Z,100121.61
2018-05-12T23:01:59.034Z,100118.50
2018-05-12T23:04:26.020Z,100116.88
2018-05-12T23:06:52.955Z,100119.17
2018-05-12T23:09:19.705Z,100116.38
2018-05-12T23:11:46.370Z,100113.86
2018-05-12T23:14:13.043Z,100110.98
2018-05-12T23:16:45.803Z,100112.69
2018-05-12T23:19:12.549Z,100106.73
2018-05-12T23:21:39.538Z,100107.40
2018-05-12T23:24:06.208Z,100104.78
2018-05-12T23:26:36.846Z,100108.23
2018-05-12T23:29:03.506Z,100101.34
2018-05-12T23:31:30.177Z,100100.94
2018-05-12T23:33:57.896Z,100094.17
2018-05-12T23:36:29.572Z,100090.62
2018-05-12T23:38:56.253Z,100097.31
2018-05-12T23:41:22.736Z,100089.81
2018-05-12T23:43:49.433Z,100085.73
2018-05-12T23:46:16.071Z,100082.92
2018-05-12T23:48:47.618Z,100079.95
2018-05-12T23:51:14.275Z,100077.02
2018-05-12T23:53:40.795Z,100079.77
2018-05-12T23:56:07.505Z,100066.93
2018-05-12T23:58:34.052Z,100066.74
